Time;durP1;ratioP1;P1;durP2;ratioP2;P2;SDS_P1;SDS_P2;PMS_P1;PMS_P2;Temp;Humidity;BMP_temperature;BMP_pressure;BME280_temperature;BME280_humidity;BME280_pressure;Samples;Min_cycle;Max_cycle;Signal;HPM_P1;HPM_P2
2021/01/23 00:01:49;;;;;;;;;;;19.00;57.30;;;;;;5072160;28;1047;-67
2021/01/23 00:04:14;;;;;;;;;;;19.00;57.40;;;;;;5071999;28;1263;-67
2021/01/23 00:06:40;;;;;;;;;;;18.90;57.30;;;;;;5071382;28;1319;-67
2021/01/23 00:09:05;;;;;;;;;;;19.00;57.50;;;;;;5072348;28;1961;-67
2021/01/23 00:11:31;;;;;;;;;;;19.00;57.40;;;;;;5072193;28;1317;-67
2021/01/23 00:13:56;;;;;;;;;;;18.90;57.40;;;;;;5072159;28;1063;-67
2021/01/23 00:16:21;;;;;;;;;;;18.90;57.40;;;;;;5071677;28;1322;-67
2021/01/23 00:18:47;;;;;;;;;;;18.90;57.40;;;;;;5072256;28;1262;-67
2021/01/23 00:21:12;;;;;;;;;;;18.90;57.50;;;;;;5071818;28;1380;-67
2021/01/23 00:23:38;;;;;;;;;;;18.90;57.50;;;;;;5070683;28;1298;-67
2021/01/23 00:26:03;;;;;;;;;;;18.90;57.50;;;;;;5072083;28;1375;-67
2021/01/23 00:28:29;;;;;;;;;;;18.90;57.50;;;;;;5072045;28;1898;-67
2021/01/23 00:30:54;;;;;;;;;;;18.90;57.60;;;;;;5072092;28;1178;-67
2021/01/23 00:33:20;;;;;;;;;;;18.90;57.60;;;;;;5070564;28;1399;-67
2021/01/23 00:35:45;;;;;;;;;;;18.90;57.60;;;;;;5071367;28;1283;-67
2021/01/23 00:38:11;;;;;;;;;;;18.90;57.60;;;;;;5071659;28;1067;-66
2021/01/23 00:40:36;;;;;;;;;;;18.90;57.60;;;;;;5071974;28;1102;-67
2021/01/23 00:43:02;;;;;;;;;;;18.90;57.60;;;;;;5071892;28;1284;-67
2021/01/23 00:45:27;;;;;;;;;;;18.90;57.60;;;;;;5070444;28;1362;-67
2021/01/23 00:47:53;;;;;;;;;;;18.80;57.60;;;;;;5071404;28;1906;-67
2021/01/23 00:50:18;;;;;;;;;;;18.90;57.70;;;;;;5071551;28;1326;-67
2021/01/23 00:52:44;;;;;;;;;;;18.90;57.70;;;;;;5058914;28;1133;-67
2021/01/23 00:55:09;;;;;;;;;;;18.90;57.70;;;;;;5075810;28;1347;-67
2021/01/23 00:57:35;;;;;;;;;;;18.80;57.70;;;;;;5075569;28;1085;-67
2021/01/23 01:00:00;;;;;;;;;;;18.80;57.70;;;;;;5070828;28;1290;-66
2021/01/23 01:02:26;;;;;;;;;;;18.80;57.70;;;;;;5070344;28;1378;-66
2021/01/23 01:04:51;;;;;;;;;;;18.90;57.70;;;;;;5068778;28;1305;-66
2021/01/23 01:07:17;;;;;;;;;;;18.80;57.70;;;;;;5072131;28;1271;-66
2021/01/23 01:09:42;;;;;;;;;;;18.80;57.70;;;;;;5066560;28;1922;-66
2021/01/23 01:12:08;;;;;;;;;;;18.80;57.70;;;;;;5066807;28;1231;-66
2021/01/23 01:14:33;;;;;;;;;;;18.80;57.70;;;;;;5066132;28;1251;-66
2021/01/23 01:16:59;;;;;;;;;;;18.80;57.70;;;;;;5069010;28;1338;-66
2021/01/23 01:19:24;;;;;;;;;;;18.80;57.70;;;;;;5068293;28;1322;-66
2021/01/23 01:21:50;;;;;;;;;;;18.80;57.70;;;;;;5070755;28;1219;-66
2021/01/23 01:24:15;;;;;;;;;;;18.80;57.70;;;;;;5063948;28;1303;-65
2021/01/23 01:26:40;;;;;;;;;;;18.80;57.70;;;;;;5068678;28;1388;-65
2021/01/23 01:29:06;;;;;;;;;;;18.80;57.80;;;;;;5070048;28;1898;-66
2021/01/23 01:31:31;;;;;;;;;;;18.80;57.70;;;;;;5075313;28;1255;-66
2021/01/23 01:33:57;;;;;;;;;;;18.80;57.70;;;;;;5075859;28;1300;-66
2021/01/23 01:36:22;;;;;;;;;;;18.80;57.80;;;;;;5074333;28;1357;-66
2021/01/23 01:38:48;;;;;;;;;;;18.80;57.80;;;;;;5075959;28;1389;-66
2021/01/23 01:41:14;;;;;;;;;;;18.80;57.80;;;;;;5075849;28;1182;-66
2021/01/23 01:43:39;;;;;;;;;;;18.80;57.80;;;;;;5076121;28;1535;-66
2021/01/23 01:46:05;;;;;;;;;;;18.80;57.80;;;;;;5075528;28;1229;-66
2021/01/23 01:48:30;;;;;;;;;;;18.80;57.80;;;;;;5074723;28;1959;-66
2021/01/23 01:50:56;;;;;;;;;;;18.80;57.70;;;;;;5075328;28;1260;-66
2021/01/23 01:53:21;;;;;;;;;;;18.80;57.80;;;;;;5075564;28;1062;-66
2021/01/23 01:55:47;;;;;;;;;;;18.80;57.80;;;;;;5074249;28;1243;-66
2021/01/23 01:58:12;;;;;;;;;;;18.80;57.80;;;;;;5075363;28;1146;-66
2021/01/23 02:00:38;;;;;;;;;;;18.80;57.80;;;;;;5074161;28;1333;-66
2021/01/23 02:03:03;;;;;;;;;;;18.80;57.80;;;;;;5075532;28;1290;-66
2021/01/23 02:05:41;;;;;;;;;;;18.80;57.80;;;;;;5074287;28;1354;-66
2021/01/23 02:08:15;;;;;;;;;;;18.80;57.80;;;;;;5075405;28;1914;-66
2021/01/23 02:10:45;;;;;;;;;;;18.80;57.90;;;;;;5062476;28;1282;-66
2021/01/23 02:13:26;;;;;;;;;;;18.80;57.90;;;;;;5075326;28;1186;-66
2021/01/23 02:15:57;;;;;;;;;;;18.80;57.90;;;;;;5073547;28;1298;-66
2021/01/23 02:18:22;;;;;;;;;;;18.80;57.90;;;;;;5075137;28;1197;-66
2021/01/23 02:20:57;;;;;;;;;;;18.80;57.90;;;;;;5073948;28;1362;-66
2021/01/23 02:23:37;;;;;;;;;;;18.80;57.90;;;;;;5075046;28;1314;-66
2021/01/23 02:26:13;;;;;;;;;;;18.80;58.00;;;;;;5073726;28;1368;-66
2021/01/23 02:29:01;;;;;;;;;;;18.70;57.90;;;;;;5074045;28;1898;-66
2021/01/23 02:31:27;;;;;;;;;;;18.70;57.90;;;;;;5060629;28;1182;-66
2021/01/23 02:33:53;;;;;;;;;;;18.80;58.00;;;;;;5073624;28;866;-67
2021/01/23 02:36:19;;;;;;;;;;;18.80;58.00;;;;;;5073442;28;1394;-67
2021/01/23 02:38:45;;;;;;;;;;;18.80;58.00;;;;;;5073284;28;1571;-67
2021/01/23 02:41:10;;;;;;;;;;;18.80;58.00;;;;;;5073395;28;1111;-67
2021/01/23 02:43:43;;;;;;;;;;;18.80;58.00;;;;;;5073432;28;1126;-67
2021/01/23 02:46:09;;;;;;;;;;;18.80;58.00;;;;;;5073281;28;1347;-66
2021/01/23 02:48:34;;;;;;;;;;;18.70;57.90;;;;;;5074449;28;1898;-67
2021/01/23 02:51:01;;;;;;;;;;;18.80;57.90;;;;;;5074461;28;1373;-66
2021/01/23 02:53:27;;;;;;;;;;;18.80;57.80;;;;;;5074066;28;1339;-66
2021/01/23 02:55:54;;;;;;;;;;;18.80;57.70;;;;;;5072942;28;1266;-66
2021/01/23 02:58:20;;;;;;;;;;;18.80;57.60;;;;;;5074328;28;1446;-66
2021/01/23 03:00:46;;;;;;;;;;;18.90;57.50;;;;;;5073081;28;1346;-66
2021/01/23 03:03:12;;;;;;;;;;;18.90;57.40;;;;;;5074320;28;1313;-66
2021/01/23 03:08:05;;;;;;;;;;;18.90;57.30;;;;;;5090009;28;2686;-64
2021/01/23 03:10:35;;;;;;;;;;;19.00;57.30;;;;;;5077819;28;1413;-67
2021/01/23 03:13:00;;;;;;;;;;;19.00;57.20;;;;;;5093257;28;1697;-67
2021/01/23 03:15:26;;;;;;;;;;;19.00;57.10;;;;;;5092526;28;1657;-67
2021/01/23 03:17:51;;;;;;;;;;;19.00;57.10;;;;;;5094129;28;1397;-65
2021/01/23 03:20:17;;;;;;;;;;;19.00;57.10;;;;;;5094307;28;1615;-65
2021/01/23 03:22:42;;;;;;;;;;;19.00;57.10;;;;;;5093057;28;1414;-66
2021/01/23 03:25:08;;;;;;;;;;;19.00;57.10;;;;;;5094023;28;1205;-66
2021/01/23 03:27:33;;;;;;;;;;;19.00;57.00;;;;;;5093900;28;1433;-66
2021/01/23 03:29:59;;;;;;;;;;;19.10;57.10;;;;;;5094084;28;1971;-65
2021/01/23 03:32:24;;;;;;;;;;;19.10;57.00;;;;;;5094240;28;1379;-65
2021/01/23 03:34:50;;;;;;;;;;;19.10;57.00;;;;;;5092027;28;1418;-65
2021/01/23 03:37:15;;;;;;;;;;;19.10;57.00;;;;;;5092408;28;1732;-66
2021/01/23 03:39:41;;;;;;;;;;;19.10;57.00;;;;;;5093771;28;1498;-65
2021/01/23 03:42:06;;;;;;;;;;;19.10;57.00;;;;;;5092500;28;1681;-67
2021/01/23 03:44:32;;;;;;;;;;;19.10;57.00;;;;;;5093796;28;1834;-65
2021/01/23 03:46:57;;;;;;;;;;;19.10;57.00;;;;;;5093852;28;1351;-66
2021/01/23 03:49:23;;;;;;;;;;;19.10;57.10;;;;;;5093707;28;1902;-66
2021/01/23 03:51:48;;;;;;;;;;;19.10;57.00;;;;;;5081389;28;1555;-65
2021/01/23 03:54:13;;;;;;;;;;;19.10;57.10;;;;;;5073205;28;1294;-66
2021/01/23 03:56:39;;;;;;;;;;;19.10;57.10;;;;;;5073245;28;1337;-66
2021/01/23 03:59:04;;;;;;;;;;;19.10;57.10;;;;;;5072237;28;1462;-67
2021/01/23 04:01:30;;;;;;;;;;;19.10;57.20;;;;;;5073460;28;1397;-67
2021/01/23 04:03:55;;;;;;;;;;;19.10;57.10;;;;;;5073040;28;1442;-66
2021/01/23 04:06:21;;;;;;;;;;;19.10;57.20;;;;;;5072876;28;1366;-66
2021/01/23 04:08:46;;;;;;;;;;;19.10;57.20;;;;;;5073265;28;1969;-67
2021/01/23 04:11:12;;;;;;;;;;;19.10;57.20;;;;;;5073292;28;1418;-66
2021/01/23 04:13:37;;;;;;;;;;;19.00;57.20;;;;;;5072993;28;1333;-67
2021/01/23 04:16:03;;;;;;;;;;;19.10;57.20;;;;;;5072495;28;1290;-67
2021/01/23 04:18:28;;;;;;;;;;;19.00;57.20;;;;;;5072753;28;1722;-67
2021/01/23 04:20:54;;;;;;;;;;;19.00;57.20;;;;;;5073059;28;1059;-66
2021/01/23 04:23:19;;;;;;;;;;;19.10;57.20;;;;;;5072000;28;1729;-65
2021/01/23 04:25:45;;;;;;;;;;;19.00;57.20;;;;;;5072823;28;1370;-65
2021/01/23 04:28:10;;;;;;;;;;;19.00;57.20;;;;;;5072890;28;1906;-65
2021/01/23 04:30:36;;;;;;;;;;;19.00;57.20;;;;;;5073044;28;1598;-66
2021/01/23 04:33:01;;;;;;;;;;;19.00;57.20;;;;;;5073137;28;1658;-67
2021/01/23 04:35:27;;;;;;;;;;;19.00;57.20;;;;;;5072780;28;1363;-66
2021/01/23 04:37:52;;;;;;;;;;;19.00;57.20;;;;;;5072776;28;1730;-66
2021/01/23 04:40:18;;;;;;;;;;;19.00;57.20;;;;;;5073011;28;1353;-66
2021/01/23 04:42:43;;;;;;;;;;;19.00;57.20;;;;;;5072870;28;1705;-66
2021/01/23 04:45:09;;;;;;;;;;;19.00;57.20;;;;;;5071643;28;1378;-65
2021/01/23 04:47:35;;;;;;;;;;;19.10;57.30;;;;;;5071196;28;1296;-65
2021/01/23 04:50:01;;;;;;;;;;;19.00;57.30;;;;;;5071626;28;1889;-66
2021/01/23 04:52:26;;;;;;;;;;;19.00;57.30;;;;;;5072872;28;1341;-65
2021/01/23 04:54:52;;;;;;;;;;;19.00;57.30;;;;;;5071400;28;1685;-66
2021/01/23 04:57:17;;;;;;;;;;;19.00;57.50;;;;;;5071361;28;1670;-66
2021/01/23 04:59:43;;;;;;;;;;;19.00;57.30;;;;;;5072864;28;1411;-66
2021/01/23 05:02:12;;;;;;;;;;;19.00;57.30;;;;;;5072749;28;1697;-67
2021/01/23 05:04:44;;;;;;;;;;;19.00;57.30;;;;;;5072322;28;1419;-66
2021/01/23 05:07:10;;;;;;;;;;;19.00;57.30;;;;;;5071154;28;1353;-66
2021/01/23 05:09:35;;;;;;;;;;;19.00;57.30;;;;;;5072628;28;1973;-66
2021/01/23 05:12:01;;;;;;;;;;;19.00;57.30;;;;;;5071224;28;1349;-66
2021/01/23 05:14:26;;;;;;;;;;;19.00;57.30;;;;;;5072411;28;1295;-67
2021/01/23 05:16:52;;;;;;;;;;;19.00;57.30;;;;;;5072481;28;1711;-66
2021/01/23 05:19:18;;;;;;;;;;;19.00;57.30;;;;;;5072482;28;1476;-67
2021/01/23 05:21:43;;;;;;;;;;;19.00;57.30;;;;;;5071395;28;1692;-66
2021/01/23 05:24:12;;;;;;;;;;;19.00;57.30;;;;;;5071178;28;1387;-66
2021/01/23 05:26:38;;;;;;;;;;;19.00;57.40;;;;;;5072262;28;1569;-66
2021/01/23 05:29:07;;;;;;;;;;;19.00;57.30;;;;;;5072519;28;1961;-66
2021/01/23 05:31:32;;;;;;;;;;;19.00;57.30;;;;;;5072481;28;1396;-67
2021/01/23 05:33:58;;;;;;;;;;;19.00;57.90;;;;;;5072310;28;1431;-66
2021/01/23 05:36:23;;;;;;;;;;;19.00;57.40;;;;;;5072286;28;1332;-66
2021/01/23 05:38:49;;;;;;;;;;;19.00;57.40;;;;;;5072780;28;1682;-66
2021/01/23 05:41:15;;;;;;;;;;;19.00;57.40;;;;;;5075971;28;1652;-66
2021/01/23 05:43:41;;;;;;;;;;;19.00;57.40;;;;;;5074771;28;1427;-66
2021/01/23 05:46:07;;;;;;;;;;;19.00;57.40;;;;;;5075502;28;1390;-65
2021/01/23 05:48:33;;;;;;;;;;;19.00;57.40;;;;;;5075859;28;1960;-66
2021/01/23 05:50:59;;;;;;;;;;;19.00;57.40;;;;;;5074421;28;1436;-65
2021/01/23 05:53:24;;;;;;;;;;;19.00;57.40;;;;;;5073799;28;1425;-67
2021/01/23 05:55:50;;;;;;;;;;;19.00;57.40;;;;;;5075496;28;1444;-66
2021/01/23 05:58:15;;;;;;;;;;;19.00;57.40;;;;;;5075676;28;1437;-66
2021/01/23 06:00:41;;;;;;;;;;;19.00;57.40;;;;;;5075392;28;1454;-66
2021/01/23 06:03:06;;;;;;;;;;;19.00;57.40;;;;;;5074445;28;1628;-66
2021/01/23 06:05:32;;;;;;;;;;;18.90;57.40;;;;;;5075280;28;1410;-65
2021/01/23 06:07:58;;;;;;;;;;;19.00;57.40;;;;;;5073917;28;1913;-65
2021/01/23 06:10:23;;;;;;;;;;;19.00;57.40;;;;;;5075569;28;1480;-66
2021/01/23 06:12:52;;;;;;;;;;;18.90;57.40;;;;;;5075476;28;1404;-65
2021/01/23 06:15:36;;;;;;;;;;;18.90;57.40;;;;;;5073814;28;1595;-66
2021/01/23 06:18:06;;;;;;;;;;;18.90;57.40;;;;;;5073954;28;1396;-66
2021/01/23 06:20:40;;;;;;;;;;;18.90;57.40;;;;;;5075333;28;1399;-66
2021/01/23 06:23:09;;;;;;;;;;;18.90;58.00;;;;;;5075107;28;1467;-66
2021/01/23 06:25:50;;;;;;;;;;;19.00;57.40;;;;;;5074008;28;1894;-66
2021/01/23 06:28:15;;;;;;;;;;;19.00;57.40;;;;;;5074985;28;1949;-67
2021/01/23 06:30:41;;;;;;;;;;;19.00;57.40;;;;;;5075069;28;1357;-66
2021/01/23 06:33:38;;;;;;;;;;;19.00;57.40;;;;;;5075084;28;1692;-66
2021/01/23 06:36:04;;;;;;;;;;;19.00;57.40;;;;;;5051574;28;1713;-66
2021/01/23 06:38:30;;;;;;;;;;;19.00;57.40;;;;;;5074764;28;1289;-67
2021/01/23 06:40:55;;;;;;;;;;;19.00;57.30;;;;;;5073724;28;1431;-66
2021/01/23 06:43:20;;;;;;;;;;;19.00;57.30;;;;;;5074712;28;1465;-66
2021/01/23 06:45:46;;;;;;;;;;;19.00;57.30;;;;;;5073142;28;1636;-66
2021/01/23 06:48:11;;;;;;;;;;;19.00;57.30;;;;;;5074686;28;1902;-65
2021/01/23 06:50:40;;;;;;;;;;;19.00;57.30;;;;;;5073384;28;1193;-66
2021/01/23 06:53:07;;;;;;;;;;;19.00;57.30;;;;;;5073392;28;1685;-66
2021/01/23 06:55:45;;;;;;;;;;;19.00;57.20;;;;;;5074424;28;1564;-66
2021/01/23 06:58:24;;;;;;;;;;;19.00;57.20;;;;;;5073178;28;1533;-66
2021/01/23 07:00:50;;;;;;;;;;;19.00;57.20;;;;;;5074439;28;1892;-66
2021/01/23 07:03:16;;;;;;;;;;;19.10;57.30;;;;;;5074453;28;1627;-66
2021/01/23 07:05:45;;;;;;;;;;;19.00;57.20;;;;;;5072757;28;1666;-66
2021/01/23 07:08:20;;;;;;;;;;;19.00;57.30;;;;;;5073056;28;1898;-65
2021/01/23 07:10:46;;;;;;;;;;;19.00;57.20;;;;;;5074359;28;1216;-65
2021/01/23 07:13:11;;;;;;;;;;;19.00;57.30;;;;;;5072983;28;1655;-65
2021/01/23 07:15:38;;;;;;;;;;;19.00;57.30;;;;;;5064555;28;2256;-64
2021/01/23 07:18:12;;;;;;;;;;;19.00;57.20;;;;;;5075873;28;1147;-65
2021/01/23 07:20:38;;;;;;;;;;;19.00;57.30;;;;;;5092734;28;1557;-66
2021/01/23 07:23:03;;;;;;;;;;;19.00;57.30;;;;;;5089572;28;1845;-64
2021/01/23 07:25:29;;;;;;;;;;;19.00;57.30;;;;;;5085740;28;1623;-66
2021/01/23 07:27:54;;;;;;;;;;;19.00;57.30;;;;;;5088317;28;1893;-64
2021/01/23 07:30:20;;;;;;;;;;;19.00;57.30;;;;;;5092497;28;1565;-65
2021/01/23 07:32:46;;;;;;;;;;;19.00;57.30;;;;;;5094029;28;1396;-64
2021/01/23 07:35:11;;;;;;;;;;;19.00;57.30;;;;;;5092618;28;1414;-66
2021/01/23 07:37:41;;;;;;;;;;;19.00;57.30;;;;;;5093591;28;1441;-66
2021/01/23 07:40:07;;;;;;;;;;;19.00;57.30;;;;;;5092663;28;1201;-66
2021/01/23 07:42:32;;;;;;;;;;;19.00;57.30;;;;;;5093416;28;1316;-66
2021/01/23 07:45:02;;;;;;;;;;;19.00;57.30;;;;;;5091577;28;1338;-66
2021/01/23 07:47:27;;;;;;;;;;;19.00;57.30;;;;;;5091977;28;1573;-67
2021/01/23 07:50:02;;;;;;;;;;;19.00;57.30;;;;;;5090621;28;1949;-67
2021/01/23 07:52:28;;;;;;;;;;;19.00;57.30;;;;;;5072691;28;1595;-66
2021/01/23 07:54:53;;;;;;;;;;;19.00;57.30;;;;;;5070026;28;1669;-67
2021/01/23 07:57:19;;;;;;;;;;;19.00;57.30;;;;;;5071013;28;1459;-67
2021/01/23 07:59:45;;;;;;;;;;;19.00;57.30;;;;;;5073018;28;1686;-67
2021/01/23 08:02:10;;;;;;;;;;;19.00;57.30;;;;;;5072945;28;1690;-67
2021/01/23 08:04:36;;;;;;;;;;;19.00;57.30;;;;;;5071947;28;1527;-67
2021/01/23 08:07:20;;;;;;;;;;;19.00;57.30;;;;;;5072918;28;1598;-67
2021/01/23 08:09:46;;;;;;;;;;;19.00;57.40;;;;;;5072158;28;1898;-67
2021/01/23 08:12:18;;;;;;;;;;;19.00;57.30;;;;;;5071808;28;1669;-67
2021/01/23 08:14:53;;;;;;;;;;;19.00;57.30;;;;;;5073037;28;1705;-66
2021/01/23 08:17:19;;;;;;;;;;;19.00;57.40;;;;;;5071547;28;1613;-67
2021/01/23 08:19:50;;;;;;;;;;;19.00;57.40;;;;;;5053663;28;1646;-65
2021/01/23 08:22:16;;;;;;;;;;;19.00;57.30;;;;;;5072169;28;1629;-66
2021/01/23 08:24:41;;;;;;;;;;;19.00;57.40;;;;;;5071762;28;1621;-66
2021/01/23 08:27:16;;;;;;;;;;;19.00;57.30;;;;;;5072840;28;1260;-66
2021/01/23 08:29:43;;;;;;;;;;;19.00;57.40;;;;;;5072818;28;1890;-66
2021/01/23 08:32:09;;;;;;;;;;;19.00;57.30;;;;;;5071972;28;1387;-67
2021/01/23 08:34:34;;;;;;;;;;;19.00;57.30;;;;;;5072831;28;1423;-67
2021/01/23 08:37:00;;;;;;;;;;;19.00;57.40;;;;;;5072654;28;1431;-67
2021/01/23 08:39:25;;;;;;;;;;;19.00;57.40;;;;;;5072991;28;1492;-67
2021/01/23 08:41:50;;;;;;;;;;;19.00;57.30;;;;;;5072900;28;1645;-68
2021/01/23 08:44:16;;;;;;;;;;;19.00;57.10;;;;;;5072917;28;1523;-67
2021/01/23 08:46:43;;;;;;;;;;;19.00;57.10;;;;;;5072651;28;1385;-67
2021/01/23 08:49:09;;;;;;;;;;;19.10;57.10;;;;;;5072851;28;1898;-67
2021/01/23 08:51:34;;;;;;;;;;;19.10;57.00;;;;;;5072648;28;1506;-68
2021/01/23 08:54:00;;;;;;;;;;;19.10;57.00;;;;;;5073009;28;1721;-67
2021/01/23 08:56:25;;;;;;;;;;;19.10;56.90;;;;;;5072703;28;1403;-68
2021/01/23 08:58:51;;;;;;;;;;;19.20;56.90;;;;;;5072891;28;1328;-67
2021/01/23 09:01:16;;;;;;;;;;;19.20;56.80;;;;;;5071703;28;1618;-67
2021/01/23 09:03:42;;;;;;;;;;;19.20;56.80;;;;;;5072651;28;1613;-66
2021/01/23 09:08:44;;;;;;;;;;;19.20;56.70;;;;;;5066453;28;2015;-66
2021/01/23 09:11:10;;;;;;;;;;;19.20;56.70;;;;;;5064020;28;1695;-65
2021/01/23 09:13:36;;;;;;;;;;;19.20;56.70;;;;;;5072689;28;1702;-65
2021/01/23 09:16:01;;;;;;;;;;;19.20;56.70;;;;;;5058718;28;1679;-66
2021/01/23 09:18:27;;;;;;;;;;;19.20;56.70;;;;;;5076286;28;1659;-66
2021/01/23 09:20:52;;;;;;;;;;;19.20;56.70;;;;;;5076350;28;1414;-66
2021/01/23 09:23:17;;;;;;;;;;;19.20;56.70;;;;;;5076152;28;1511;-65
2021/01/23 09:25:43;;;;;;;;;;;19.20;57.00;;;;;;5076041;28;1370;-65
2021/01/23 09:28:09;;;;;;;;;;;19.20;56.70;;;;;;5076039;28;1898;-68
2021/01/23 09:30:35;;;;;;;;;;;19.20;56.70;;;;;;5076210;28;1801;-67
2021/01/23 09:33:00;;;;;;;;;;;19.20;56.70;;;;;;5076113;28;1706;-66
2021/01/23 09:35:26;;;;;;;;;;;19.20;56.70;;;;;;5075645;28;1409;-66
2021/01/23 09:37:52;;;;;;;;;;;19.20;56.80;;;;;;5075684;28;1482;-67
2021/01/23 09:40:17;;;;;;;;;;;19.20;56.70;;;;;;5076131;28;1359;-67
2021/01/23 09:42:42;;;;;;;;;;;19.20;56.80;;;;;;5057828;28;1411;-67
2021/01/23 09:45:08;;;;;;;;;;;19.20;56.80;;;;;;5057885;28;1633;-66
2021/01/23 09:47:34;;;;;;;;;;;19.20;56.80;;;;;;5075543;28;1681;-67
2021/01/23 09:50:02;;;;;;;;;;;19.20;56.80;;;;;;5075693;28;1906;-67
2021/01/23 09:52:28;;;;;;;;;;;19.20;56.80;;;;;;5062293;28;1605;-67
2021/01/23 09:54:53;;;;;;;;;;;19.20;56.80;;;;;;5075494;28;1712;-67
2021/01/23 09:57:18;;;;;;;;;;;19.20;56.80;;;;;;5075348;28;1573;-67
2021/01/23 09:59:44;;;;;;;;;;;19.20;56.80;;;;;;5075685;28;1383;-67
2021/01/23 10:02:09;;;;;;;;;;;19.20;56.90;;;;;;5074992;28;1299;-66
2021/01/23 10:04:35;;;;;;;;;;;19.20;56.80;;;;;;5073593;28;1236;-66
2021/01/23 10:07:00;;;;;;;;;;;19.20;56.80;;;;;;5069926;28;1917;-66
2021/01/23 10:09:26;;;;;;;;;;;19.20;56.70;;;;;;5074286;28;1985;-68
2021/01/23 10:11:51;;;;;;;;;;;19.20;56.70;;;;;;5070902;28;1386;-69
2021/01/23 10:14:17;;;;;;;;;;;19.30;56.70;;;;;;5066572;28;1219;-67
2021/01/23 10:16:43;;;;;;;;;;;19.40;56.60;;;;;;5043207;28;1373;-67
2021/01/23 10:19:08;;;;;;;;;;;19.40;56.40;;;;;;5049565;28;1200;-65
2021/01/23 10:21:34;;;;;;;;;;;19.50;56.20;;;;;;5052041;28;1164;-66
2021/01/23 10:23:59;;;;;;;;;;;19.70;56.10;;;;;;5067695;28;1244;-66
2021/01/23 10:26:25;;;;;;;;;;;19.70;55.80;;;;;;5068983;28;1322;-66
2021/01/23 10:28:50;;;;;;;;;;;19.80;55.70;;;;;;5049258;28;1959;-66
2021/01/23 10:31:16;;;;;;;;;;;19.90;55.50;;;;;;5069169;28;1223;-66
2021/01/23 10:33:41;;;;;;;;;;;20.00;55.30;;;;;;5050606;28;1327;-67
2021/01/23 10:36:07;;;;;;;;;;;20.10;55.10;;;;;;5070165;28;1358;-67
2021/01/23 10:38:32;;;;;;;;;;;20.10;55.00;;;;;;5066486;28;1743;-66
2021/01/23 10:40:58;;;;;;;;;;;20.20;54.80;;;;;;5068410;28;1306;-66
2021/01/23 10:43:23;;;;;;;;;;;20.20;54.70;;;;;;5067793;28;1337;-67
2021/01/23 10:45:49;;;;;;;;;;;20.30;54.60;;;;;;5069416;28;1252;-67
2021/01/23 10:48:14;;;;;;;;;;;20.30;54.50;;;;;;5069894;28;1897;-68
2021/01/23 10:50:40;;;;;;;;;;;20.40;54.40;;;;;;5065710;28;1268;-68
2021/01/23 10:53:05;;;;;;;;;;;20.40;54.40;;;;;;5066864;28;1287;-66
2021/01/23 10:55:31;;;;;;;;;;;20.40;54.30;;;;;;5050893;28;1268;-67
2021/01/23 10:57:56;;;;;;;;;;;20.50;54.30;;;;;;5067803;28;1342;-67
2021/01/23 11:00:22;;;;;;;;;;;20.50;54.20;;;;;;5066226;28;1236;-67
2021/01/23 11:02:47;;;;;;;;;;;20.50;54.10;;;;;;5066350;28;1267;-67
2021/01/23 11:05:13;;;;;;;;;;;20.50;54.10;;;;;;5066388;28;1507;-68
2021/01/23 11:07:38;;;;;;;;;;;20.60;54.10;;;;;;5050697;28;1280;-67
2021/01/23 11:10:04;;;;;;;;;;;20.60;54.10;;;;;;5069005;28;1968;-67
2021/01/23 11:12:30;;;;;;;;;;;20.50;54.00;;;;;;5050209;28;1268;-66
2021/01/23 11:14:55;;;;;;;;;;;20.60;54.00;;;;;;5048035;28;1252;-67
2021/01/23 11:17:21;;;;;;;;;;;20.60;54.00;;;;;;5066745;28;1287;-66
2021/01/23 11:19:46;;;;;;;;;;;20.60;54.60;;;;;;5066450;28;1200;-67
2021/01/23 11:22:11;;;;;;;;;;;20.60;54.00;;;;;;5065330;28;1343;-66
2021/01/23 11:24:37;;;;;;;;;;;20.70;54.00;;;;;;5067633;28;1586;-67
2021/01/23 11:27:03;;;;;;;;;;;20.70;54.00;;;;;;5047880;28;1602;-66
2021/01/23 11:29:28;;;;;;;;;;;20.70;54.00;;;;;;5065936;28;1906;-67
2021/01/23 11:31:54;;;;;;;;;;;20.70;53.90;;;;;;5068536;28;1198;-67
2021/01/23 11:34:19;;;;;;;;;;;20.70;53.90;;;;;;5064533;28;1329;-67
2021/01/23 11:36:45;;;;;;;;;;;20.70;53.90;;;;;;5067928;28;1381;-66
2021/01/23 11:39:10;;;;;;;;;;;20.80;53.90;;;;;;5067955;28;1236;-67
2021/01/23 11:41:36;;;;;;;;;;;20.80;53.80;;;;;;5067940;28;1212;-67
2021/01/23 11:44:02;;;;;;;;;;;20.80;53.80;;;;;;5066000;28;1244;-67
2021/01/23 11:46:27;;;;;;;;;;;20.80;53.80;;;;;;5067540;28;1291;-67
2021/01/23 11:48:53;;;;;;;;;;;20.80;53.70;;;;;;5067654;28;1890;-65
2021/01/23 11:51:18;;;;;;;;;;;20.80;53.70;;;;;;5067597;28;1722;-65
2021/01/23 11:53:44;;;;;;;;;;;20.90;53.70;;;;;;5049075;28;1256;-65
2021/01/23 11:56:09;;;;;;;;;;;20.90;53.70;;;;;;5065284;28;1410;-65
2021/01/23 11:58:35;;;;;;;;;;;20.90;53.70;;;;;;5064289;28;1314;-66
2021/01/23 12:01:00;;;;;;;;;;;20.90;53.60;;;;;;5050971;28;1434;-65
2021/01/23 12:03:26;;;;;;;;;;;20.90;53.60;;;;;;5063414;28;1192;-65
2021/01/23 12:05:51;;;;;;;;;;;20.90;53.60;;;;;;5064671;28;1247;-66
2021/01/23 12:08:17;;;;;;;;;;;20.90;53.60;;;;;;5066783;28;1902;-66
2021/01/23 12:10:43;;;;;;;;;;;20.90;53.60;;;;;;5054872;28;1246;-67
2021/01/23 12:13:09;;;;;;;;;;;20.90;53.50;;;;;;5035526;28;1369;-67
2021/01/23 12:15:34;;;;;;;;;;;20.90;53.50;;;;;;5072709;28;1303;-67
2021/01/23 12:18:00;;;;;;;;;;;20.90;53.60;;;;;;5072542;28;1199;-67
2021/01/23 12:20:25;;;;;;;;;;;20.90;53.60;;;;;;5073180;28;1184;-67
2021/01/23 12:22:51;;;;;;;;;;;20.90;53.60;;;;;;5072935;28;1143;-67
2021/01/23 12:25:16;;;;;;;;;;;20.90;53.60;;;;;;5054617;28;1437;-67
2021/01/23 12:27:42;;;;;;;;;;;21.00;53.70;;;;;;5059490;28;1345;-67
2021/01/23 12:30:10;;;;;;;;;;;20.90;53.60;;;;;;5054701;28;1945;-67
2021/01/23 12:32:36;;;;;;;;;;;20.90;53.70;;;;;;5072653;28;992;-67
2021/01/23 12:35:02;;;;;;;;;;;20.90;53.70;;;;;;5072714;28;1047;-67
2021/01/23 12:37:30;;;;;;;;;;;20.90;53.80;;;;;;5054708;28;1266;-67
2021/01/23 12:39:56;;;;;;;;;;;20.90;53.80;;;;;;5072864;28;819;-67
2021/01/23 12:42:22;;;;;;;;;;;20.80;53.80;;;;;;5072944;28;1285;-67
2021/01/23 12:44:47;;;;;;;;;;;20.80;53.90;;;;;;5071773;28;1216;-67
2021/01/23 12:47:12;;;;;;;;;;;20.80;53.90;;;;;;5069702;28;1423;-67
2021/01/23 12:49:38;;;;;;;;;;;20.80;54.50;;;;;;5065008;28;1894;-67
2021/01/23 12:52:03;;;;;;;;;;;20.80;54.00;;;;;;5068053;28;1394;-66
2021/01/23 12:54:29;;;;;;;;;;;20.80;54.10;;;;;;5075815;28;1189;-67
2021/01/23 12:56:54;;;;;;;;;;;20.70;54.10;;;;;;5070305;28;1328;-67
2021/01/23 12:59:20;;;;;;;;;;;20.70;54.10;;;;;;5072193;28;1833;-67
2021/01/23 13:01:45;;;;;;;;;;;20.70;54.20;;;;;;5057422;28;1107;-67
2021/01/23 13:04:11;;;;;;;;;;;20.70;54.80;;;;;;5075398;28;1158;-67
2021/01/23 13:06:36;;;;;;;;;;;20.70;54.30;;;;;;5057130;28;1316;-67
2021/01/23 13:09:02;;;;;;;;;;;20.70;54.40;;;;;;5075278;28;1963;-67
2021/01/23 13:11:28;;;;;;;;;;;20.60;54.30;;;;;;5075424;28;1288;-67
2021/01/23 13:13:53;;;;;;;;;;;20.60;54.40;;;;;;5075214;28;1387;-67
2021/01/23 13:16:19;;;;;;;;;;;20.60;54.40;;;;;;5057073;28;1338;-67
2021/01/23 13:18:45;;;;;;;;;;;20.60;54.80;;;;;;5057450;28;1276;-67
2021/01/23 13:21:10;;;;;;;;;;;20.60;54.50;;;;;;5075102;28;1345;-67
2021/01/23 13:23:36;;;;;;;;;;;20.50;54.50;;;;;;5075095;28;1915;-67
2021/01/23 13:26:02;;;;;;;;;;;20.50;54.60;;;;;;5074943;28;1056;-67
2021/01/23 13:28:27;;;;;;;;;;;20.50;54.60;;;;;;5056915;28;1898;-67
2021/01/23 13:30:53;;;;;;;;;;;20.50;54.60;;;;;;5074309;28;1017;-67
2021/01/23 13:33:18;;;;;;;;;;;20.50;54.70;;;;;;5074741;28;1495;-67
2021/01/23 13:35:44;;;;;;;;;;;20.50;54.70;;;;;;5074882;28;1322;-67
2021/01/23 13:38:11;;;;;;;;;;;20.50;54.80;;;;;;5074571;28;1280;-67
2021/01/23 13:40:36;;;;;;;;;;;20.40;54.80;;;;;;5074816;28;981;-67
2021/01/23 13:43:02;;;;;;;;;;;20.40;54.80;;;;;;5074708;28;942;-67
2021/01/23 13:45:30;;;;;;;;;;;20.40;54.90;;;;;;5074347;28;1313;-67
2021/01/23 13:47:56;;;;;;;;;;;20.40;54.90;;;;;;5061453;28;1305;-67
2021/01/23 13:50:21;;;;;;;;;;;20.40;54.90;;;;;;5074649;28;1959;-67
2021/01/23 13:52:47;;;;;;;;;;;20.40;55.00;;;;;;5074594;28;1242;-67
2021/01/23 13:55:12;;;;;;;;;;;20.30;54.90;;;;;;5072082;28;1677;-67
2021/01/23 13:57:38;;;;;;;;;;;20.30;55.00;;;;;;5066751;28;1380;-67
2021/01/23 14:00:04;;;;;;;;;;;20.30;55.00;;;;;;5065787;28;1316;-67
2021/01/23 14:02:29;;;;;;;;;;;20.30;55.10;;;;;;5073007;28;1074;-67
2021/01/23 14:04:55;;;;;;;;;;;20.30;55.10;;;;;;5067083;28;1020;-67
2021/01/23 14:07:20;;;;;;;;;;;20.30;55.10;;;;;;5060189;28;1208;-67
2021/01/23 14:09:46;;;;;;;;;;;20.30;55.20;;;;;;5073650;28;1945;-67
2021/01/23 14:12:11;;;;;;;;;;;20.30;55.20;;;;;;5073089;28;895;-67
2021/01/23 14:14:36;;;;;;;;;;;20.20;55.20;;;;;;5054995;28;989;-67
2021/01/23 14:17:02;;;;;;;;;;;20.20;55.20;;;;;;5059842;28;1317;-67
2021/01/23 14:19:27;;;;;;;;;;;20.20;55.30;;;;;;5073363;28;1282;-67
2021/01/23 14:21:53;;;;;;;;;;;20.20;55.30;;;;;;5072586;28;1277;-67
2021/01/23 14:24:18;;;;;;;;;;;20.20;55.30;;;;;;5072905;28;1310;-68
2021/01/23 14:26:45;;;;;;;;;;;20.10;55.50;;;;;;5072513;28;1282;-67
2021/01/23 14:29:11;;;;;;;;;;;20.20;55.40;;;;;;5071896;28;1959;-68
2021/01/23 14:31:36;;;;;;;;;;;20.20;55.50;;;;;;5072965;28;1230;-68